Time;durP1;ratioP1;P1;durP2;ratioP2;P2;SDS_P1;SDS_P2;PMS_P1;PMS_P2;Temp;Humidity;BMP_temperature;BMP_pressure;BME280_temperature;BME280_humidity;BME280_pressure;Samples;Min_cycle;Max_cycle;Signal;HPM_P1;HPM_P2
2022/10/30 00:00:26;;;;;;;22.77;12.10;;;15.00;99.90;;;;;;4896063;29;20549;-57
2022/10/30 00:02:52;;;;;;;24.73;11.52;;;15.00;99.90;;;;;;4899364;29;20135;-57
2022/10/30 00:05:19;;;;;;;27.08;12.88;;;15.00;99.90;;;;;;4896375;29;20170;-57
2022/10/30 00:07:46;;;;;;;27.27;12.80;;;15.00;99.90;;;;;;4898109;29;20131;-55
2022/10/30 00:10:12;;;;;;;27.67;12.43;;;14.90;99.90;;;;;;4895032;29;20103;-56
2022/10/30 00:12:39;;;;;;;30.90;12.30;;;14.90;99.90;;;;;;4925977;28;20084;-57
2022/10/30 00:15:06;;;;;;;28.45;12.88;;;14.90;99.90;;;;;;4892488;29;20131;-56
2022/10/30 00:17:32;;;;;;;23.15;11.55;;;14.90;99.90;;;;;;4893330;29;20040;-57
2022/10/30 00:19:58;;;;;;;24.08;12.15;;;14.90;99.90;;;;;;4897658;29;20044;-56
2022/10/30 00:22:24;;;;;;;32.67;12.88;;;14.90;99.90;;;;;;4897063;29;20054;-55
2022/10/30 00:24:50;;;;;;;29.08;11.80;;;14.90;99.90;;;;;;4895255;29;20123;-57
2022/10/30 00:27:16;;;;;;;28.02;11.77;;;14.80;99.90;;;;;;4892498;29;21104;-56
2022/10/30 00:29:42;;;;;;;27.92;11.60;;;14.80;99.90;;;;;;4925229;28;20048;-57
2022/10/30 00:32:07;;;;;;;25.33;11.55;;;14.80;99.90;;;;;;4891665;29;20050;-56
2022/10/30 00:34:33;;;;;;;30.58;11.82;;;14.80;99.90;;;;;;4894442;29;20096;-56
2022/10/30 00:36:59;;;;;;;19.95;11.68;;;14.80;99.90;;;;;;4894873;29;20048;-57
2022/10/30 00:39:25;;;;;;;21.88;11.20;;;14.80;99.90;;;;;;4892287;29;20055;-57
2022/10/30 00:41:51;;;;;;;26.65;11.10;;;14.80;99.90;;;;;;4893614;29;20051;-56
2022/10/30 00:44:43;;;;;;;23.52;11.57;;;14.80;99.90;;;;;;4897899;29;21867;-56
2022/10/30 00:47:31;;;;;;;26.42;11.07;;;14.80;99.90;;;;;;4883348;29;20071;-56
2022/10/30 00:50:12;;;;;;;24.85;10.85;;;14.80;99.90;;;;;;4894024;29;20063;-57
2022/10/30 00:52:51;;;;;;;22.08;11.45;;;14.80;99.90;;;;;;4892626;29;20044;-56
2022/10/30 00:55:22;;;;;;;21.98;11.57;;;14.80;99.90;;;;;;4924703;28;20076;-57
2022/10/30 00:57:49;;;;;;;25.67;11.32;;;14.70;99.90;;;;;;4895869;29;20044;-55
2022/10/30 01:00:16;;;;;;;22.10;11.43;;;14.70;99.90;;;;;;4893707;29;20740;-55
2022/10/30 01:02:43;;;;;;;24.25;11.75;;;14.70;99.90;;;;;;4925773;28;20550;-55
2022/10/30 01:05:14;;;;;;;25.15;11.32;;;14.70;99.90;;;;;;4925632;28;20146;-56
2022/10/30 01:07:40;;;;;;;21.95;11.00;;;14.70;99.90;;;;;;4895498;29;20055;-56
2022/10/30 01:10:07;;;;;;;25.00;11.18;;;14.60;99.90;;;;;;4895000;29;20067;-55
2022/10/30 01:12:33;;;;;;;22.38;11.50;;;14.60;99.90;;;;;;4896289;29;20048;-56
2022/10/30 01:15:00;;;;;;;22.45;11.60;;;14.60;99.90;;;;;;4894392;29;20055;-57
2022/10/30 01:17:56;;;;;;;32.67;12.05;;;14.60;99.90;;;;;;4894873;29;20055;-56
2022/10/30 01:20:22;;;;;;;26.60;11.07;;;14.60;99.90;;;;;;4896615;29;20051;-56
2022/10/30 01:22:56;;;;;;;20.42;10.30;;;14.60;99.90;;;;;;4895792;29;20052;-56
2022/10/30 01:25:43;;;;;;;23.95;11.85;;;14.60;99.90;;;;;;4895565;29;20044;-55
2022/10/30 01:28:46;;;;;;;21.77;11.55;;;14.60;99.90;;;;;;4894039;29;20522;-56
2022/10/30 01:31:46;;;;;;;24.17;11.93;;;14.60;99.90;;;;;;4893668;29;20566;-57
2022/10/30 01:34:27;;;;;;;31.80;11.57;;;14.60;99.90;;;;;;4890291;29;20499;-57
2022/10/30 01:37:23;;;;;;;28.52;11.82;;;14.50;99.90;;;;;;4894930;29;20052;-56
2022/10/30 01:39:49;;;;;;;25.20;11.38;;;14.60;99.90;;;;;;4895032;29;20800;-57
2022/10/30 01:42:47;;;;;;;27.15;11.85;;;14.60;99.90;;;;;;4894596;29;20067;-57
2022/10/30 01:45:51;;;;;;;27.85;12.10;;;14.60;99.90;;;;;;4893815;29;20051;-56
2022/10/30 01:48:29;;;;;;;28.85;11.25;;;14.50;99.90;;;;;;4904213;29;20056;-56
2022/10/30 01:51:32;;;;;;;20.85;10.73;;;14.60;99.90;;;;;;4895154;29;20442;-57
2022/10/30 01:54:20;;;;;;;;;;;14.60;99.90;;;;;;4894468;29;20055;-57
2022/10/30 01:57:02;;;;;;;22.58;10.75;;;14.50;99.90;;;;;;4885867;29;20355;-55
2022/10/30 01:59:49;;;;;;;18.90;11.20;;;14.50;99.90;;;;;;4894230;29;20041;-57
2022/10/30 02:02:15;;;;;;;22.85;11.65;;;14.50;99.90;;;;;;4894767;29;20048;-57
2022/10/30 02:04:41;;;;;;;23.40;11.40;;;14.50;99.90;;;;;;4893812;29;20698;-55
2022/10/30 02:07:08;;;;;;;25.75;11.10;;;14.50;99.90;;;;;;4894640;29;20635;-55
2022/10/30 02:09:34;;;;;;;23.88;11.25;;;14.50;99.90;;;;;;4894801;29;20053;-56
2022/10/30 02:12:01;;;;;;;21.52;11.43;;;14.50;99.90;;;;;;4892670;29;20056;-57
2022/10/30 02:14:34;;;;;;;27.52;11.35;;;14.40;99.90;;;;;;4892389;29;20052;-56
2022/10/30 02:17:02;;;;;;;24.00;11.70;;;14.40;99.90;;;;;;4890259;29;20044;-54
2022/10/30 02:19:28;;;;;;;31.83;11.55;;;14.30;99.90;;;;;;4893318;29;20509;-56
2022/10/30 02:21:54;;;;;;;29.35;11.80;;;14.30;99.90;;;;;;4894688;29;20051;-56
2022/10/30 02:24:20;;;;;;;26.65;11.80;;;14.30;99.90;;;;;;4893040;29;20048;-57
2022/10/30 02:26:46;;;;;;;17.83;10.48;;;14.30;99.90;;;;;;4892627;29;20067;-57
2022/10/30 02:29:12;;;;;;;33.55;11.98;;;14.30;99.90;;;;;;4894593;29;20053;-56
2022/10/30 02:31:38;;;;;;;27.35;12.15;;;14.30;99.90;;;;;;4894394;29;20531;-55
2022/10/30 02:34:04;;;;;;;24.15;12.50;;;14.30;99.90;;;;;;4895445;29;20056;-56
2022/10/30 02:36:30;;;;;;;31.90;12.38;;;14.30;99.90;;;;;;4890410;29;20095;-56
2022/10/30 02:38:55;;;;;;;31.35;12.50;;;14.30;99.90;;;;;;4907929;29;20499;-56
2022/10/30 02:41:22;;;;;;;24.65;11.50;;;14.30;99.90;;;;;;4893531;29;20505;-57
2022/10/30 02:43:50;;;;;;;29.02;12.15;;;14.30;99.90;;;;;;4895105;29;20048;-56
2022/10/30 02:46:16;;;;;;;25.25;12.55;;;14.20;99.90;;;;;;4894120;29;20056;-56
2022/10/30 02:48:42;;;;;;;22.88;11.05;;;14.30;99.90;;;;;;4897311;29;20123;-56
2022/10/30 02:51:07;;;;;;;27.63;11.95;;;14.20;99.90;;;;;;4897896;29;20084;-56
2022/10/30 02:53:33;;;;;;;24.30;11.93;;;14.30;99.90;;;;;;4896881;29;20056;-55
2022/10/30 02:56:07;;;;;;;21.70;11.98;;;14.20;99.90;;;;;;4897673;29;20094;-56
2022/10/30 02:58:33;;;;;;;27.30;12.20;;;14.30;99.90;;;;;;4897284;29;20052;-56
2022/10/30 03:01:14;;;;;;;24.27;12.13;;;14.20;99.90;;;;;;4897382;29;20190;-57
2022/10/30 03:03:40;;;;;;;27.55;11.43;;;14.20;99.90;;;;;;4895702;29;20134;-57
2022/10/30 03:06:08;;;;;;;29.23;11.45;;;14.20;99.90;;;;;;4896091;29;20491;-55
2022/10/30 03:08:34;;;;;;;23.50;11.85;;;14.20;99.90;;;;;;4896402;29;20051;-55
2022/10/30 03:11:02;;;;;;;23.52;11.65;;;14.20;99.90;;;;;;4928973;28;20074;-56
2022/10/30 03:13:29;;;;;;;24.63;11.00;;;14.20;99.90;;;;;;4897475;29;20085;-56
2022/10/30 03:16:03;;;;;;;20.75;11.40;;;14.10;99.90;;;;;;4895881;29;20079;-56
2022/10/30 03:18:29;;;;;;;25.20;12.18;;;14.10;99.90;;;;;;4895872;29;20048;-56
2022/10/30 03:21:00;;;;;;;26.75;11.05;;;14.10;99.90;;;;;;4896517;29;20538;-57
2022/10/30 03:23:27;;;;;;;26.50;12.40;;;14.10;99.90;;;;;;4897865;29;20068;-56
2022/10/30 03:25:54;;;;;;;26.15;11.52;;;14.00;99.90;;;;;;4895846;29;20049;-57
2022/10/30 03:28:22;;;;;;;23.33;12.20;;;14.00;99.90;;;;;;4895183;29;21043;-56
2022/10/30 03:30:48;;;;;;;23.80;11.98;;;14.00;99.90;;;;;;4895381;29;20083;-55
2022/10/30 03:33:14;;;;;;;30.70;12.13;;;13.90;99.90;;;;;;4893770;29;20091;-56
2022/10/30 03:35:45;;;;;;;25.45;12.35;;;13.90;99.90;;;;;;4895772;29;20345;-57
2022/10/30 03:38:11;;;;;;;22.58;12.23;;;13.90;99.90;;;;;;4895135;29;21032;-56
2022/10/30 03:40:37;;;;;;;36.70;12.85;;;13.80;99.90;;;;;;4896851;29;20139;-57
2022/10/30 03:43:03;;;;;;;26.15;12.00;;;13.90;99.90;;;;;;4894285;29;20055;-54
2022/10/30 03:45:32;;;;;;;25.42;11.85;;;13.90;99.90;;;;;;4891573;29;20048;-57
2022/10/30 03:48:01;;;;;;;27.15;11.90;;;13.90;99.90;;;;;;4895919;29;20044;-57
2022/10/30 03:50:27;;;;;;;28.75;12.93;;;13.80;99.90;;;;;;4895345;29;20830;-56
2022/10/30 03:52:54;;;;;;;21.98;12.77;;;13.80;99.90;;;;;;4896849;29;20084;-57
2022/10/30 03:55:20;;;;;;;25.17;12.20;;;13.80;99.90;;;;;;4889394;29;20048;-56
2022/10/30 03:57:46;;;;;;;32.97;11.93;;;13.80;99.90;;;;;;4896908;29;20518;-56
2022/10/30 04:00:12;;;;;;;23.85;12.25;;;13.80;99.90;;;;;;4897755;29;20044;-57
2022/10/30 04:02:38;;;;;;;29.77;13.05;;;13.80;99.90;;;;;;4899095;29;20071;-56
2022/10/30 04:05:04;;;;;;;31.92;12.63;;;13.70;99.90;;;;;;4896190;29;20143;-56
2022/10/30 04:07:30;;;;;;;28.48;12.02;;;13.70;99.90;;;;;;4898650;29;20063;-56
2022/10/30 04:09:56;;;;;;;26.92;12.50;;;13.70;99.90;;;;;;4895493;29;20063;-55
2022/10/30 04:12:21;;;;;;;27.83;14.65;;;13.70;99.90;;;;;;4898694;29;20049;-56
2022/10/30 04:14:47;;;;;;;34.35;13.52;;;13.60;99.90;;;;;;4897574;29;20127;-55
2022/10/30 04:17:13;;;;;;;26.83;13.90;;;13.60;99.90;;;;;;4895677;29;20100;-56
2022/10/30 04:19:38;;;;;;;32.83;14.18;;;13.60;99.90;;;;;;4896695;29;20093;-57
2022/10/30 04:22:05;;;;;;;28.55;14.43;;;13.60;99.90;;;;;;4893774;29;20048;-56
2022/10/30 04:24:31;;;;;;;30.48;15.88;;;13.50;99.90;;;;;;4927060;28;20115;-56
2022/10/30 04:26:56;;;;;;;28.48;14.95;;;13.50;99.90;;;;;;4894311;29;20059;-56
2022/10/30 04:29:22;;;;;;;24.05;14.30;;;13.50;99.90;;;;;;4896843;29;20062;-57
2022/10/30 04:31:48;;;;;;;25.88;14.23;;;13.50;99.90;;;;;;4895612;29;20048;-57
2022/10/30 04:34:14;;;;;;;37.65;15.60;;;13.50;99.90;;;;;;4925339;28;20451;-55
2022/10/30 04:36:39;;;;;;;37.47;14.80;;;13.50;99.90;;;;;;4896372;29;20139;-56
2022/10/30 04:39:05;;;;;;;31.85;14.85;;;13.50;99.90;;;;;;4927263;28;20056;-56
2022/10/30 04:41:31;;;;;;;35.80;14.35;;;13.50;99.90;;;;;;4927420;28;20079;-55
2022/10/30 04:43:57;;;;;;;29.15;13.65;;;13.50;99.90;;;;;;4897234;29;20167;-57
2022/10/30 04:46:23;;;;;;;28.95;13.50;;;13.50;99.90;;;;;;4898276;29;20056;-56
2022/10/30 04:48:48;;;;;;;25.80;13.15;;;13.50;99.90;;;;;;4896935;29;20158;-57
2022/10/30 04:51:14;;;;;;;29.02;13.73;;;13.50;99.90;;;;;;4894028;29;20563;-56
2022/10/30 04:53:41;;;;;;;27.10;13.77;;;13.50;99.90;;;;;;4897448;29;20048;-56
2022/10/30 04:56:07;;;;;;;28.45;15.63;;;13.50;99.90;;;;;;4895250;29;20163;-56
2022/10/30 04:58:32;;;;;;;30.33;15.88;;;13.50;99.90;;;;;;4896624;29;20985;-57
2022/10/30 05:01:05;;;;;;;28.67;15.70;;;13.50;99.90;;;;;;4895751;29;20048;-56
2022/10/30 05:03:31;;;;;;;33.40;15.57;;;13.50;99.90;;;;;;4897239;29;20171;-56
2022/10/30 05:06:02;;;;;;;31.08;14.63;;;13.50;99.90;;;;;;4894564;29;20053;-56
2022/10/30 05:08:28;;;;;;;28.23;14.32;;;13.50;99.90;;;;;;4893690;29;20063;-55
2022/10/30 05:10:55;;;;;;;33.92;13.70;;;13.50;99.90;;;;;;4891135;29;20174;-56
2022/10/30 05:13:21;;;;;;;37.78;13.63;;;13.50;99.90;;;;;;4898038;29;20128;-55
2022/10/30 05:15:47;;;;;;;29.77;14.15;;;13.50;99.90;;;;;;4894715;29;20056;-56
2022/10/30 05:18:13;;;;;;;30.38;14.68;;;13.50;99.90;;;;;;4897494;29;20055;-56
2022/10/30 05:20:38;;;;;;;29.65;14.98;;;13.60;99.90;;;;;;4925707;28;20491;-56
2022/10/30 05:23:04;;;;;;;28.27;14.25;;;13.60;99.90;;;;;;4895552;29;20407;-55
2022/10/30 05:25:30;;;;;;;30.63;13.32;;;13.60;99.90;;;;;;4894836;29;20058;-56
2022/10/30 05:28:01;;;;;;;34.63;14.07;;;13.60;99.90;;;;;;4897199;29;20111;-56
2022/10/30 05:30:29;;;;;;;30.92;13.93;;;13.60;99.90;;;;;;4893894;29;20063;-57
2022/10/30 05:32:59;;;;;;;27.38;13.63;;;13.50;99.90;;;;;;4897103;29;20500;-56
2022/10/30 05:35:25;;;;;;;32.30;13.60;;;13.60;99.90;;;;;;4895714;29;20072;-56
2022/10/30 05:37:51;;;;;;;33.92;13.48;;;13.50;99.90;;;;;;4895152;29;20423;-57
2022/10/30 05:40:16;;;;;;;27.17;13.23;;;13.50;99.90;;;;;;4895084;29;20047;-56
2022/10/30 05:42:46;;;;;;;26.75;13.80;;;13.50;99.90;;;;;;4895807;29;20491;-56
2022/10/30 05:45:13;;;;;;;24.55;13.57;;;13.50;99.90;;;;;;4895395;29;20052;-56
2022/10/30 05:47:39;;;;;;;26.13;13.25;;;13.40;99.90;;;;;;4893793;29;20747;-57
2022/10/30 05:50:05;;;;;;;31.67;13.88;;;13.40;99.90;;;;;;4894429;29;20056;-57
2022/10/30 05:52:31;;;;;;;22.88;13.85;;;13.40;99.90;;;;;;4895632;29;20044;-56
2022/10/30 05:54:57;;;;;;;32.72;13.40;;;13.40;99.90;;;;;;4895300;29;20670;-55
2022/10/30 05:57:23;;;;;;;28.40;13.40;;;13.30;99.90;;;;;;4894718;29;20128;-55
2022/10/30 05:59:49;;;;;;;25.23;12.63;;;13.30;99.90;;;;;;4891851;29;20055;-56
2022/10/30 06:02:16;;;;;;;28.25;13.65;;;13.30;99.90;;;;;;4895968;29;20056;-56
2022/10/30 06:04:41;;;;;;;30.45;14.05;;;13.30;99.90;;;;;;4895600;29;20411;-55
2022/10/30 06:07:08;;;;;;;28.65;13.98;;;13.30;99.90;;;;;;4896298;29;20056;-56
2022/10/30 06:09:34;;;;;;;26.75;13.45;;;13.20;99.90;;;;;;4891782;29;20060;-57
2022/10/30 06:12:00;;;;;;;29.30;14.50;;;13.20;99.90;;;;;;4893278;29;20044;-57
2022/10/30 06:14:26;;;;;;;29.58;14.60;;;13.20;99.90;;;;;;4895800;29;20052;-56
2022/10/30 06:16:51;;;;;;;25.35;13.48;;;13.20;99.90;;;;;;4890925;29;20076;-56
2022/10/30 06:19:17;;;;;;;33.80;14.23;;;13.20;99.90;;;;;;4890916;29;20107;-56
2022/10/30 06:21:43;;;;;;;28.38;13.50;;;13.20;99.90;;;;;;4895411;29;20067;-56
2022/10/30 06:24:09;;;;;;;28.45;13.70;;;13.20;99.90;;;;;;4895424;29;20085;-56
2022/10/30 06:26:35;;;;;;;28.15;14.32;;;13.10;99.90;;;;;;4899531;29;20056;-56
2022/10/30 06:29:00;;;;;;;28.58;13.68;;;13.10;99.90;;;;;;4896189;29;20044;-56
2022/10/30 06:31:26;;;;;;;29.98;13.57;;;13.00;99.90;;;;;;4896906;29;20044;-56
2022/10/30 06:34:00;;;;;;;31.05;13.43;;;13.00;99.90;;;;;;4899057;29;20078;-56
2022/10/30 06:36:25;;;;;;;24.08;13.77;;;13.00;99.90;;;;;;4897233;29;20048;-56
2022/10/30 06:38:51;;;;;;;26.70;14.25;;;13.00;99.90;;;;;;4898971;29;20052;-54
2022/10/30 06:41:17;;;;;;;27.63;14.45;;;13.00;99.90;;;;;;4894509;29;20058;-56
2022/10/30 06:43:43;;;;;;;32.22;13.50;;;13.00;99.90;;;;;;4895042;29;20550;-56
2022/10/30 06:46:08;;;;;;;28.48;13.98;;;12.90;99.90;;;;;;4899473;29;20086;-56
2022/10/30 06:48:34;;;;;;;30.48;14.27;;;12.90;99.90;;;;;;4894687;29;20052;-55
2022/10/30 06:51:01;;;;;;;27.05;13.55;;;12.90;99.90;;;;;;4896079;29;20137;-55
2022/10/30 06:53:27;;;;;;;23.75;13.65;;;12.90;99.90;;;;;;4897062;29;20510;-57
2022/10/30 06:56:01;;;;;;;35.08;14.80;;;12.90;99.90;;;;;;4896600;29;20049;-54
2022/10/30 06:58:27;;;;;;;31.27;13.85;;;12.90;99.90;;;;;;4887716;29;20044;-54
2022/10/30 07:00:53;;;;;;;26.15;13.63;;;12.90;99.90;;;;;;4898258;29;20044;-55
2022/10/30 07:03:20;;;;;;;31.48;14.20;;;12.90;99.90;;;;;;4895198;29;20399;-56
2022/10/30 07:05:46;;;;;;;30.40;14.05;;;12.90;99.90;;;;;;4896569;29;21879;-57
2022/10/30 07:08:12;;;;;;;26.98;13.95;;;12.90;99.90;;;;;;4874175;29;20088;-55
2022/10/30 07:10:38;;;;;;;26.65;14.30;;;12.80;99.90;;;;;;4892090;29;20055;-56
2022/10/30 07:13:04;;;;;;;31.83;14.40;;;12.80;99.90;;;;;;4892261;29;20187;-56
2022/10/30 07:15:30;;;;;;;28.30;14.30;;;12.80;99.90;;;;;;4892255;29;20058;-56
2022/10/30 07:17:57;;;;;;;24.77;14.13;;;12.90;99.90;;;;;;4893431;29;20080;-56
2022/10/30 07:20:24;;;;;;;35.53;15.05;;;12.90;99.90;;;;;;4899236;29;20953;-56
2022/10/30 07:22:50;;;;;;;25.38;14.02;;;12.90;99.90;;;;;;4898560;29;20529;-54
2022/10/30 07:25:16;;;;;;;26.45;14.55;;;12.90;99.90;;;;;;4898660;29;20044;-55
2022/10/30 07:27:47;;;;;;;29.75;14.52;;;12.80;99.90;;;;;;4897194;29;20060;-57
2022/10/30 07:30:17;;;;;;;27.27;14.23;;;12.90;99.90;;;;;;4897727;29;20058;-56
2022/10/30 07:32:43;;;;;;;28.05;14.05;;;12.90;99.90;;;;;;4896866;29;20049;-55
2022/10/30 07:35:11;;;;;;;27.95;14.82;;;12.90;99.90;;;;;;4910992;29;20044;-56
2022/10/30 07:37:38;;;;;;;26.45;14.77;;;12.90;99.90;;;;;;4896568;29;20099;-54
2022/10/30 07:40:05;;;;;;;26.45;14.75;;;12.90;99.90;;;;;;4897674;29;20060;-56
2022/10/30 07:42:32;;;;;;;35.05;15.45;;;12.90;99.90;;;;;;4896718;29;20045;-56
2022/10/30 07:44:58;;;;;;;29.73;15.07;;;12.90;99.90;;;;;;4895886;29;20064;-55
2022/10/30 07:47:24;;;;;;;36.33;15.27;;;12.90;99.90;;;;;;4891755;29;20467;-55
2022/10/30 07:49:49;;;;;;;30.88;15.82;;;13.00;99.90;;;;;;4895261;29;20136;-56
2022/10/30 07:52:15;;;;;;;24.95;14.77;;;13.00;99.90;;;;;;4892602;29;20503;-57
2022/10/30 07:54:41;;;;;;;29.13;15.10;;;13.00;99.90;;;;;;4924658;28;20115;-56
2022/10/30 07:57:07;;;;;;;27.27;15.00;;;13.10;99.90;;;;;;4897115;29;20048;-57
2022/10/30 07:59:33;;;;;;;38.38;16.33;;;13.10;99.90;;;;;;4893743;29;20170;-56
2022/10/30 08:01:59;;;;;;;31.88;14.27;;;13.20;99.90;;;;;;4887235;29;20127;-56
2022/10/30 08:04:25;;;;;;;28.65;14.50;;;13.20;99.90;;;;;;4885462;29;20059;-55
2022/10/30 08:06:52;;;;;;;28.63;15.05;;;13.20;99.90;;;;;;4883082;29;20083;-56
2022/10/30 08:09:18;;;;;;;33.78;15.73;;;13.30;99.90;;;;;;4883503;29;20119;-57
2022/10/30 08:11:43;;;;;;;33.00;15.68;;;13.40;99.90;;;;;;4885106;29;20100;-56
2022/10/30 08:14:09;;;;;;;35.92;14.60;;;13.40;99.90;;;;;;4887568;29;20119;-55
2022/10/30 08:16:35;;;;;;;30.13;14.93;;;13.50;99.90;;;;;;4886664;29;20143;-55
2022/10/30 08:19:01;;;;;;;34.83;16.35;;;13.50;99.90;;;;;;4894349;29;20744;-57
2022/10/30 08:21:27;;;;;;;27.13;15.48;;;13.60;99.90;;;;;;4891361;29;20143;-56
2022/10/30 08:23:53;;;;;;;27.17;14.48;;;13.70;99.90;;;;;;4907406;29;20055;-57
2022/10/30 08:26:18;;;;;;;33.58;15.20;;;13.70;99.90;;;;;;4891942;29;20048;-56
2022/10/30 08:28:44;;;;;;;39.78;15.57;;;13.80;99.90;;;;;;4890444;29;20524;-55
2022/10/30 08:31:10;;;;;;;29.17;15.55;;;13.90;99.90;;;;;;4905517;29;20056;-57
2022/10/30 08:33:36;;;;;;;37.80;15.23;;;14.00;99.90;;;;;;4894936;29;20044;-55
2022/10/30 08:36:01;;;;;;;32.75;16.27;;;14.10;99.90;;;;;;4889966;29;20131;-56
2022/10/30 08:38:28;;;;;;;29.83;15.30;;;14.20;99.90;;;;;;4887451;29;20075;-57
2022/10/30 08:40:54;;;;;;;36.25;16.30;;;14.30;99.90;;;;;;4889012;29;20066;-55
2022/10/30 08:43:20;;;;;;;35.28;16.70;;;14.40;99.90;;;;;;4893060;29;20048;-56
2022/10/30 08:45:46;;;;;;;33.30;17.20;;;14.50;99.90;;;;;;4888603;29;20123;-57
2022/10/30 08:48:14;;;;;;;34.08;17.23;;;14.60;99.90;;;;;;4891383;29;20119;-56
2022/10/30 08:50:40;;;;;;;47.03;18.42;;;14.70;99.90;;;;;;4886844;29;20143;-56
2022/10/30 08:53:09;;;;;;;30.98;17.23;;;14.70;99.90;;;;;;4892166;29;20490;-56
2022/10/30 08:55:35;;;;;;;29.67;16.35;;;14.90;99.90;;;;;;4880639;29;20061;-56
2022/10/30 08:58:02;;;;;;;28.98;16.48;;;14.90;99.90;;;;;;4893178;29;20055;-55
2022/10/30 09:00:28;;;;;;;30.05;16.10;;;15.10;99.90;;;;;;4896540;29;20104;-56
2022/10/30 09:02:54;;;;;;;30.08;15.68;;;15.20;99.90;;;;;;4892981;29;23968;-56
2022/10/30 09:05:20;;;;;;;27.00;15.27;;;15.30;99.90;;;;;;4896718;29;20090;-56
2022/10/30 09:07:46;;;;;;;27.73;15.48;;;15.40;99.90;;;;;;4895099;29;20044;-56
2022/10/30 09:10:13;;;;;;;28.83;14.80;;;15.60;99.90;;;;;;4895160;29;20066;-54
2022/10/30 09:12:39;;;;;;;32.70;14.85;;;15.60;99.90;;;;;;4893764;29;20044;-55
2022/10/30 09:15:05;;;;;;;29.25;14.88;;;15.80;99.90;;;;;;4895338;29;20275;-56
2022/10/30 09:17:31;;;;;;;29.17;15.15;;;15.90;99.90;;;;;;4894674;29;20048;-56
2022/10/30 09:19:57;;;;;;;31.17;14.88;;;15.90;99.90;;;;;;4893884;29;20076;-56
2022/10/30 09:22:23;;;;;;;25.33;15.25;;;16.10;99.90;;;;;;4895860;29;20058;-56
2022/10/30 09:24:49;;;;;;;29.25;15.85;;;16.20;99.90;;;;;;4894401;29;20186;-56
2022/10/30 09:27:15;;;;;;;31.65;16.38;;;16.30;99.90;;;;;;4894992;29;20111;-56
2022/10/30 09:29:40;;;;;;;34.75;15.82;;;16.50;99.90;;;;;;4894122;29;20512;-56
2022/10/30 09:32:09;;;;;;;33.17;17.40;;;16.60;99.90;;;;;;4897137;29;20059;-56
2022/10/30 09:34:37;;;;;;;34.67;16.00;;;16.70;99.90;;;;;;4908001;29;20055;-56
2022/10/30 09:37:03;;;;;;;24.48;14.30;;;16.90;99.90;;;;;;4901954;29;20045;-56
2022/10/30 09:39:29;;;;;;;24.67;13.60;;;17.00;99.90;;;;;;4896872;29;20058;-57
2022/10/30 09:42:19;;;;;;;23.13;12.88;;;17.10;99.90;;;;;;4894295;29;20537;-56
2022/10/30 09:45:23;;;;;;;33.15;13.73;;;17.30;99.90;;;;;;4894864;29;20055;-56
2022/10/30 09:48:06;;;;;;;28.20;14.30;;;17.50;99.90;;;;;;4895361;29;20083;-56
2022/10/30 09:51:15;;;;;;;23.15;12.90;;;17.60;99.90;;;;;;4894885;29;20064;-57
2022/10/30 09:54:04;;;;;;;29.45;13.13;;;17.70;99.90;;;;;;4895048;29;20062;-56
2022/10/30 09:57:01;;;;;;;19.88;11.95;;;17.90;99.90;;;;;;4924825;29;20053;-55
2022/10/30 09:59:38;;;;;;;24.73;11.70;;;18.00;99.90;;;;;;4893698;29;20044;-57
2022/10/30 10:02:24;;;;;;;20.60;11.75;;;18.10;99.90;;;;;;4894608;29;20048;-56
2022/10/30 10:05:02;;;;;;;20.35;11.02;;;18.10;99.90;;;;;;4895140;29;20067;-56
2022/10/30 10:07:42;;;;;;;27.17;11.20;;;18.20;99.90;;;;;;4894415;29;20069;-56
2022/10/30 10:10:18;;;;;;;20.52;11.20;;;18.20;99.90;;;;;;4895652;29;20070;-56
2022/10/30 10:12:47;;;;;;;23.13;11.38;;;18.20;99.90;;;;;;4892482;29;20037;-56
2022/10/30 10:15:30;;;;;;;23.15;11.63;;;18.20;99.90;;;;;;4895608;29;20403;-57
2022/10/30 10:18:00;;;;;;;24.33;11.82;;;18.30;99.90;;;;;;4894022;29;20874;-56
2022/10/30 10:20:42;;;;;;;22.45;11.95;;;18.50;99.90;;;;;;4894156;29;20052;-57
2022/10/30 10:23:17;;;;;;;21.08;11.70;;;18.60;99.90;;;;;;4893154;29;20080;-56
2022/10/30 10:25:51;;;;;;;19.92;10.82;;;18.80;99.90;;;;;;4925385;29;20895;-56
2022/10/30 10:28:19;;;;;;;21.55;11.73;;;18.90;99.90;;;;;;4894070;29;20044;-58
2022/10/30 10:31:01;;;;;;;22.15;10.38;;;19.00;99.90;;;;;;4894559;29;20379;-57
2022/10/30 10:33:38;;;;;;;25.80;12.60;;;19.10;99.90;;;;;;4894507;29;20121;-56
2022/10/30 10:36:46;;;;;;;23.90;11.73;;;19.10;99.90;;;;;;4922162;28;20311;-57
2022/10/30 10:39:26;;;;;;;26.52;12.88;;;19.10;99.90;;;;;;4893178;29;20071;-56
2022/10/30 10:41:55;;;;;;;22.33;12.00;;;19.20;99.90;;;;;;4891456;29;20133;-57
2022/10/30 10:44:48;;;;;;;26.85;13.10;;;19.20;99.90;;;;;;4893865;29;20067;-57
2022/10/30 10:47:31;;;;;;;;;;;19.40;99.90;;;;;;4894812;29;20107;-56
2022/10/30 10:50:39;;;;;;;18.75;12.45;;;19.60;99.90;;;;;;4892250;29;19983;-56
2022/10/30 10:53:41;;;;;;;23.13;9.38;;;19.70;99.90;;;;;;4863332;29;20430;-57
2022/10/30 10:56:08;;;;;;;23.50;10.00;;;19.80;99.90;;;;;;4871155;29;20630;-56
2022/10/30 10:58:58;;;;;;;19.95;9.90;;;20.00;99.90;;;;;;4888237;29;20075;-57
2022/10/30 11:01:37;;;;;;;21.88;9.55;;;20.00;99.90;;;;;;4892515;29;20538;-56
2022/10/30 11:04:17;;;;;;;17.38;9.80;;;20.10;99.90;;;;;;4893897;29;20506;-57
2022/10/30 11:06:49;;;;;;;21.05;9.40;;;20.20;99.90;;;;;;4894868;29;20044;-57
2022/10/30 11:09:20;;;;;;;20.67;9.43;;;20.30;99.90;;;;;;4898579;29;20563;-57
2022/10/30 11:11:48;;;;;;;25.40;9.68;;;20.30;99.90;;;;;;4898929;29;20110;-56
2022/10/30 11:14:19;;;;;;;20.00;9.50;;;20.40;99.90;;;;;;4895127;29;20057;-56
2022/10/30 11:17:09;;;;;;;24.42;10.20;;;20.20;99.90;;;;;;4898685;29;20048;-56
2022/10/30 11:19:35;;;;;;;19.35;10.70;;;20.20;99.90;;;;;;4913039;29;20051;-57
2022/10/30 11:22:02;;;;;;;21.02;9.95;;;20.20;99.90;;;;;;4896347;29;20418;-57
2022/10/30 11:24:31;;;;;;;23.73;11.05;;;20.20;99.90;;;;;;4898703;29;20056;-58
2022/10/30 11:27:19;;;;;;;20.35;9.57;;;20.30;99.90;;;;;;4912051;29;20380;-57
2022/10/30 11:30:00;;;;;;;19.00;9.07;;;20.40;99.90;;;;;;4890801;29;20276;-56
2022/10/30 11:32:28;;;;;;;19.30;8.15;;;20.60;99.90;;;;;;4897028;29;20120;-57
2022/10/30 11:35:06;;;;;;;18.23;8.55;;;20.80;99.90;;;;;;4928519;29;20585;-57
2022/10/30 11:37:35;;;;;;;16.60;7.65;;;20.90;99.90;;;;;;4898548;29;20049;-55
2022/10/30 11:40:10;;;;;;;15.38;7.40;;;21.00;99.90;;;;;;4905544;29;20107;-57
2022/10/30 11:42:48;;;;;;;19.67;7.35;;;21.00;99.90;;;;;;4898604;29;20530;-57
2022/10/30 11:45:18;;;;;;;20.73;7.35;;;21.10;99.90;;;;;;4894231;29;20393;-57
2022/10/30 11:47:46;;;;;;;15.48;7.10;;;21.10;99.90;;;;;;4904984;29;20056;-57
2022/10/30 11:50:28;;;;;;;16.30;7.35;;;21.20;99.90;;;;;;4897721;29;20480;-57
2022/10/30 11:53:00;;;;;;;15.30;7.22;;;21.40;99.90;;;;;;4897224;29;20056;-58
2022/10/30 11:55:38;;;;;;;15.20;7.00;;;21.40;99.90;;;;;;4899468;29;20107;-57
2022/10/30 11:58:08;;;;;;;17.55;6.78;;;21.40;99.90;;;;;;4899333;29;20055;-56
2022/10/30 12:00:36;;;;;;;17.38;7.13;;;21.20;99.90;;;;;;4900855;29;20040;-57
2022/10/30 12:03:02;;;;;;;20.52;7.75;;;21.20;99.90;;;;;;4897409;29;20521;-57
2022/10/30 12:05:39;;;;;;;16.85;7.00;;;21.10;99.90;;;;;;4897719;29;20041;-56
2022/10/30 12:08:05;;;;;;;17.42;7.03;;;21.10;99.90;;;;;;4900055;29;20052;-56
2022/10/30 12:10:36;;;;;;;16.13;7.15;;;21.10;99.90;;;;;;4899678;29;20070;-57
2022/10/30 12:13:06;;;;;;;16.02;7.15;;;21.10;99.90;;;;;;4897954;29;20060;-57
2022/10/30 12:15:36;;;;;;;15.15;7.00;;;21.10;99.90;;;;;;4889902;29;20059;-56
2022/10/30 12:18:07;;;;;;;13.25;6.57;;;21.10;99.90;;;;;;4897144;29;20048;-57
2022/10/30 12:20:36;;;;;;;17.00;7.40;;;21.00;99.90;;;;;;4898299;29;20041;-57
2022/10/30 12:23:19;;;;;;;25.70;10.40;;;21.00;99.90;;;;;;4900662;29;20491;-57
2022/10/30 12:25:47;;;;;;;14.50;6.65;;;21.10;99.90;;;;;;4910720;29;20498;-56
2022/10/30 12:28:25;;;;;;;17.52;6.75;;;21.20;99.90;;;;;;4899290;29;20455;-56
2022/10/30 12:31:32;;;;;;;16.77;6.85;;;21.30;99.90;;;;;;4901372;29;20119;-56
2022/10/30 12:34:19;;;;;;;15.65;7.05;;;21.40;99.90;;;;;;4894773;29;20066;-56
2022/10/30 12:36:52;;;;;;;18.52;7.00;;;21.40;99.90;;;;;;4898459;29;20051;-57
2022/10/30 12:39:28;;;;;;;19.15;6.72;;;21.30;99.90;;;;;;4897517;29;20083;-57
2022/10/30 12:42:06;;;;;;;17.98;6.30;;;21.30;99.90;;;;;;4898700;29;20047;-57
2022/10/30 12:44:39;;;;;;;16.25;6.30;;;21.30;99.90;;;;;;4898938;29;20056;-57